Time;durP1;ratioP1;P1;durP2;ratioP2;P2;SDS_P1;SDS_P2;PMS_P1;PMS_P2;Temp;Humidity;BMP_temperature;BMP_pressure;BME280_temperature;BME280_humidity;BME280_pressure;Samples;Min_cycle;Max_cycle;Signal;HPM_P1;HPM_P2
2022/01/04 00:01:39;;;;;;;;;5.00;3.50;;;;;9.73;78.88;100183.28;5073121;28;45403;-73
2022/01/04 00:04:05;;;;;;;;;5.50;4.00;;;;;9.71;78.70;100190.44;5075653;28;45391;-73
2022/01/04 00:06:30;;;;;;;;;11.00;6.00;;;;;9.67;79.03;100178.25;5072419;28;45383;-73
2022/01/04 00:09:00;;;;;;;;;4.25;4.25;;;;;9.60;79.30;100155.66;5072968;28;45474;-73
2022/01/04 00:11:44;;;;;;;;;3.00;3.00;;;;;9.58;78.97;100146.91;5073161;28;45269;-73
2022/01/04 00:14:10;;;;;;;;;6.50;6.00;;;;;9.51;78.63;100137.53;5072195;28;46238;-73
2022/01/04 00:16:36;;;;;;;;;10.50;7.75;;;;;9.57;79.30;100147.00;5073032;28;45634;-73
2022/01/04 00:19:02;;;;;;;;;7.75;6.00;;;;;9.70;79.54;100166.69;5075269;28;45587;-73
2022/01/04 00:21:27;;;;;;;;;4.00;3.25;;;;;9.52;79.38;100136.59;5073441;28;45515;-73
2022/01/04 00:23:52;;;;;;;;;10.00;5.25;;;;;9.67;78.95;100161.53;5072202;28;45425;-73
2022/01/04 00:26:17;;;;;;;;;6.00;1.00;;;;;9.66;79.24;100154.56;5072819;28;45408;-73
2022/01/04 00:28:43;;;;;;;;;8.25;6.50;;;;;9.60;79.03;100160.94;5073095;28;45405;-73
2022/01/04 00:31:08;;;;;;;;;6.75;5.75;;;;;9.62;78.99;100161.75;5075141;28;47087;-73
2022/01/04 00:33:34;;;;;;;;;14.25;11.00;;;;;9.48;79.23;100138.50;5072732;28;46058;-73
2022/01/04 00:35:59;;;;;;;;;7.50;5.00;;;;;9.46;79.83;100126.28;5072142;28;45548;-73
2022/01/04 00:38:24;;;;;;;;;6.25;6.00;;;;;9.51;79.17;100124.31;5072435;28;45406;-73
2022/01/04 00:40:49;;;;;;;;;15.00;8.50;;;;;9.62;79.53;100142.38;5073123;28;45460;-73
2022/01/04 00:43:15;;;;;;;;;9.00;8.75;;;;;9.46;79.25;100116.56;5074961;28;46616;-73
2022/01/04 00:45:41;;;;;;;;;11.50;9.50;;;;;9.63;79.48;100139.69;5072176;28;45465;-73
2022/01/04 00:50:35;;;;;;;;;11.50;9.00;;;;;9.50;79.26;100112.91;5072218;28;45664;-73
2022/01/04 00:53:02;;;;;;;;;16.75;12.25;;;;;9.47;79.25;100113.03;5072758;28;46408;-73
2022/01/04 00:55:28;;;;;;;;;14.50;9.25;;;;;9.43;79.38;100106.13;5072735;28;45409;-74
2022/01/04 00:57:55;;;;;;;;;38.25;32.75;;;;;9.63;79.78;100128.25;5074322;28;45491;-73
2022/01/04 01:00:21;;;;;;;;;13.75;11.00;;;;;9.57;79.12;100110.00;5072212;28;47888;-73
2022/01/04 01:02:47;;;;;;;;;12.25;11.00;;;;;9.64;79.36;100114.09;5072124;28;45706;-73
2022/01/04 01:05:14;;;;;;;;;20.50;16.50;;;;;9.66;79.63;100115.78;5071935;28;45343;-73
2022/01/04 01:07:40;;;;;;;;;11.25;9.00;;;;;9.58;79.49;100085.31;5072282;28;45228;-73
2022/01/04 01:12:39;;;;;;;;;17.50;14.00;;;;;9.60;79.54;100092.25;5072048;28;45502;-73
2022/01/04 01:15:07;;;;;;;;;11.25;6.50;;;;;9.65;79.11;100085.00;5071941;28;45618;-73
2022/01/04 01:17:33;;;;;;;;;27.50;23.25;;;;;9.63;79.52;100080.69;5071225;28;45384;-73
2022/01/04 01:20:00;;;;;;;;;9.00;6.00;;;;;9.63;79.46;100078.06;5072668;28;45455;-73
2022/01/04 01:22:26;;;;;;;;;10.00;8.50;;;;;9.68;79.58;100070.81;5073560;28;45541;-73
2022/01/04 01:24:51;;;;;;;;;12.25;11.00;;;;;9.59;78.75;100044.75;5072753;28;45284;-73
2022/01/04 01:27:16;;;;;;;;;11.50;10.00;;;;;9.55;79.24;100030.81;5073526;28;45501;-73
2022/01/04 01:29:42;;;;;;;;;26.50;20.00;;;;;9.70;79.19;100039.88;5075445;28;45577;-73
2022/01/04 01:32:08;;;;;;;;;9.75;6.75;;;;;9.55;79.50;100012.31;5075351;28;45395;-73
2022/01/04 01:34:34;;;;;;;;;15.75;9.50;;;;;9.60;78.83;100033.28;5075675;28;45466;-73
2022/01/04 01:37:00;;;;;;;;;10.00;10.00;;;;;9.73;78.56;100042.38;5077005;28;45520;-73
2022/01/04 01:39:25;;;;;;;;;9.75;8.25;;;;;9.66;78.86;100041.78;5074867;28;45470;-73
2022/01/04 01:41:50;;;;;;;;;6.75;6.00;;;;;9.62;78.59;100031.41;5074928;28;45964;-73
2022/01/04 01:44:16;;;;;;;;;10.75;9.00;;;;;9.71;79.06;100041.63;5075760;28;45462;-73
2022/01/04 01:46:41;;;;;;;;;4.00;4.00;;;;;9.15;79.00;99952.34;5075748;28;45364;-73
2022/01/04 01:49:06;;;;;;;;;6.00;5.50;;;;;9.49;79.25;100002.88;5078065;28;45367;-73
2022/01/04 01:51:32;;;;;;;;;10.00;5.25;;;;;9.61;79.14;100025.28;5074430;28;45641;-73
2022/01/04 01:53:58;;;;;;;;;5.75;5.00;;;;;9.38;78.83;99976.03;5075356;28;45392;-73
2022/01/04 01:56:24;;;;;;;;;4.50;4.50;;;;;9.67;79.19;100011.81;5075807;28;45381;-74
2022/01/04 01:58:50;;;;;;;;;5.25;5.00;;;;;9.68;79.13;100010.03;5074884;28;45351;-73
2022/01/04 02:01:15;;;;;;;;;9.75;6.50;;;;;9.47;78.84;99970.41;5077417;28;46098;-73
2022/01/04 02:03:41;;;;;;;;;4.75;4.75;;;;;9.73;78.77;100013.31;5074131;28;45416;-73
2022/01/04 02:06:06;;;;;;;;;4.00;4.00;;;;;9.70;78.56;100008.16;5073779;28;45402;-73
2022/01/04 02:08:32;;;;;;;;;6.00;5.00;;;;;9.60;78.51;99986.56;5075009;28;45522;-73
2022/01/04 02:10:58;;;;;;;;;6.25;6.00;;;;;9.66;78.56;99990.75;5075404;27;45486;-73
2022/01/04 02:13:25;;;;;;;;;4.25;4.25;;;;;9.73;78.79;99997.47;5076460;28;45310;-73
2022/01/04 02:15:51;;;;;;;;;7.75;5.50;;;;;9.72;78.32;99991.34;5075853;28;45276;-73
2022/01/04 02:18:17;;;;;;;;;11.25;9.25;;;;;9.72;78.39;99985.19;5075101;28;45474;-73
2022/01/04 02:20:42;;;;;;;;;8.25;5.00;;;;;9.66;78.56;99969.59;5074568;28;45465;-73
2022/01/04 02:23:08;;;;;;;;;4.50;3.50;;;;;9.67;78.89;99966.88;5075980;28;45485;-73
2022/01/04 02:25:33;;;;;;;;;8.75;5.75;;;;;9.66;78.49;99945.84;5075167;28;45594;-73
2022/01/04 02:27:59;;;;;;;;;5.00;5.00;;;;;9.78;78.64;99958.50;5076678;28;45493;-73
2022/01/04 02:30:25;;;;;;;;;3.50;3.50;;;;;9.72;78.66;99945.56;5074185;28;45528;-73
2022/01/04 02:32:51;;;;;;;;;3.50;2.50;;;;;9.78;78.31;99953.22;5074788;28;45576;-73
2022/01/04 02:35:30;;;;;;;;;13.00;8.50;;;;;9.68;79.05;99936.06;5074383;28;45585;-73
2022/01/04 02:37:59;;;;;;;;;3.25;2.75;;;;;9.73;78.44;99941.97;5074304;28;45377;-73
2022/01/04 02:40:27;;;;;;;;;8.75;6.00;;;;;9.50;78.38;99890.13;5075374;28;45625;-74
2022/01/04 02:42:54;;;;;;;;;3.50;3.50;;;;;9.75;77.89;99935.72;5076149;28;45317;-73
2022/01/04 02:45:19;;;;;;;;;4.50;4.50;;;;;9.72;78.19;99927.91;5073884;28;45418;-73
2022/01/04 02:47:45;;;;;;;;;6.00;5.00;;;;;9.67;78.37;99916.69;5074241;28;45352;-73
2022/01/04 02:50:11;;;;;;;;;2.50;2.00;;;;;9.75;78.06;99909.28;5074133;28;46516;-73
2022/01/04 02:52:38;;;;;;;;;4.25;4.25;;;;;9.70;78.83;99886.63;5074441;28;45609;-74
2022/01/04 02:55:06;;;;;;;;;7.00;5.00;;;;;9.73;78.24;99871.50;5087521;27;45505;-74
2022/01/04 02:57:31;;;;;;;;;5.50;4.00;;;;;9.66;78.70;99861.28;5074033;28;45458;-73
2022/01/04 02:59:57;;;;;;;;;6.25;5.00;;;;;9.71;78.61;99857.53;5074680;28;46488;-73
2022/01/04 03:02:22;;;;;;;;;3.75;3.75;;;;;9.72;78.12;99866.28;5074050;28;45913;-74
2022/01/04 03:04:47;;;;;;;;;5.75;5.75;;;;;9.70;78.35;99876.06;5074168;28;45598;-73
2022/01/04 03:07:13;;;;;;;;;6.75;6.00;;;;;9.75;78.63;99877.59;5075997;28;45574;-74
2022/01/04 03:09:38;;;;;;;;;11.00;7.75;;;;;9.76;78.57;99881.06;5074348;28;45979;-73
2022/01/04 03:12:05;;;;;;;;;9.75;6.50;;;;;9.78;78.46;99866.03;5074381;28;45374;-73
2022/01/04 03:14:30;;;;;;;;;3.25;3.25;;;;;9.80;78.02;99865.97;5073767;28;45308;-73
2022/01/04 03:16:56;;;;;;;;;3.00;3.00;;;;;9.71;78.04;99846.94;5074122;28;45702;-73
2022/01/04 03:19:21;;;;;;;;;4.75;3.00;;;;;9.81;78.61;99863.25;5075250;28;46110;-73
2022/01/04 03:21:46;;;;;;;;;2.50;2.50;;;;;9.83;78.38;99858.75;5074851;28;45327;-73
2022/01/04 03:24:14;;;;;;;;;3.75;3.25;;;;;9.79;78.03;99846.59;5073282;28;45441;-73
2022/01/04 03:26:40;;;;;;;;;2.00;0.00;;;;;9.82;77.92;99853.53;5073135;28;45482;-73
2022/01/04 03:29:07;;;;;;;;;2.00;1.00;;;;;9.63;77.84;99827.94;5072723;28;45384;-73
2022/01/04 03:31:33;;;;;;;;;3.50;2.00;;;;;9.77;77.97;99851.97;5074059;28;45525;-73
2022/01/04 03:33:59;;;;;;;;;3.00;3.00;;;;;9.69;77.96;99832.94;5073473;28;45515;-73
2022/01/04 03:36:25;;;;;;;;;2.00;2.00;;;;;9.33;78.19;99758.88;5073411;28;45499;-73
2022/01/04 03:38:54;;;;;;;;;2.25;2.25;;;;;9.80;78.08;99834.25;5073117;28;47641;-73
2022/01/04 03:41:22;;;;;;;;;3.50;1.50;;;;;9.67;77.98;99818.09;5073913;28;45522;-73
2022/01/04 03:43:47;;;;;;;;;3.75;1.25;;;;;9.71;78.02;99825.81;5056535;28;45334;-73
2022/01/04 03:46:13;;;;;;;;;4.00;2.75;;;;;9.71;77.73;99832.88;5075841;28;45336;-73
2022/01/04 03:48:38;;;;;;;;;1.00;1.00;;;;;9.67;77.90;99837.44;5072422;28;45450;-72
2022/01/04 03:51:05;;;;;;;;;2.75;2.00;;;;;9.68;78.23;99831.25;5071932;28;45241;-72
2022/01/04 03:53:31;;;;;;;;;3.25;1.75;;;;;9.65;77.84;99841.09;5073344;28;45826;-72
2022/01/04 03:55:56;;;;;;;;;2.00;2.00;;;;;9.60;78.17;99837.78;5073726;28;45485;-73
2022/01/04 03:58:22;;;;;;;;;3.00;1.00;;;;;9.36;78.30;99797.47;5074633;28;46066;-73
2022/01/04 04:00:47;;;;;;;;;1.50;1.25;;;;;9.58;78.22;99832.56;5073717;28;45411;-73
2022/01/04 04:03:13;;;;;;;;;10.00;3.50;;;;;9.58;78.45;99829.91;5071753;28;46129;-72
2022/01/04 04:05:38;;;;;;;;;4.00;2.00;;;;;9.59;78.24;99817.56;5073327;28;45373;-73
2022/01/04 04:08:04;;;;;;;;;3.75;2.50;;;;;9.49;78.50;99801.28;5073024;28;46440;-72
2022/01/04 04:10:30;;;;;;;;;8.00;5.50;;;;;9.49;78.74;99802.13;5073891;28;45440;-72
2022/01/04 04:12:55;;;;;;;;;6.75;3.50;;;;;9.50;78.82;99800.34;5075056;28;45450;-72
2022/01/04 04:15:21;;;;;;;;;4.50;3.00;;;;;9.19;78.53;99748.06;5072864;28;45450;-73
2022/01/04 04:17:46;;;;;;;;;3.50;3.50;;;;;9.35;78.82;99761.41;5072242;28;46305;-73
2022/01/04 04:20:13;;;;;;;;;2.50;2.00;;;;;9.53;79.21;99773.81;5073743;28;45448;-73
2022/01/04 04:22:38;;;;;;;;;4.00;4.00;;;;;9.58;78.56;99800.00;5073046;28;45550;-73
2022/01/04 04:25:04;;;;;;;;;4.75;3.50;;;;;9.53;78.83;99803.72;5074125;28;45305;-73
2022/01/04 04:27:29;;;;;;;;;10.50;9.00;;;;;9.56;79.51;99805.38;5072237;28;45264;-73
2022/01/04 04:29:55;;;;;;;;;14.25;8.50;;;;;9.58;78.99;99797.38;5072424;28;45432;-73
2022/01/04 04:32:20;;;;;;;;;40.00;25.75;;;;;9.64;78.51;99782.09;5073744;27;45369;-73
2022/01/04 04:34:45;;;;;;;;;14.25;10.00;;;;;9.65;78.76;99775.03;5072673;28;45523;-73
2022/01/04 04:37:11;;;;;;;;;7.75;7.75;;;;;9.37;77.72;99733.16;5074315;28;45604;-73
2022/01/04 04:39:36;;;;;;;;;12.25;7.75;;;;;9.41;77.96;99747.94;5072783;28;45296;-72
2022/01/04 04:42:02;;;;;;;;;9.00;8.25;;;;;9.28;78.39;99734.44;5072810;28;45467;-72
2022/01/04 04:44:27;;;;;;;;;18.00;10.50;;;;;8.97;78.05;99693.59;5070701;28;45535;-72
2022/01/04 04:46:53;;;;;;;;;14.25;11.25;;;;;9.24;79.03;99743.44;5073016;28;45662;-72
2022/01/04 04:49:18;;;;;;;;;17.50;10.25;;;;;9.42;78.75;99766.38;5074566;28;45415;-72
2022/01/04 04:51:44;;;;;;;;;11.75;9.75;;;;;9.42;78.41;99757.59;5072902;28;45512;-72
2022/01/04 04:54:09;;;;;;;;;7.50;4.00;;;;;9.46;78.36;99744.16;5072546;28;45443;-72
2022/01/04 04:56:38;;;;;;;;;17.75;14.25;;;;;9.29;78.43;99723.81;5072424;28;46206;-73
2022/01/04 04:59:04;;;;;;;;;11.75;9.00;;;;;9.44;78.42;99740.75;5072148;28;45466;-73
2022/01/04 05:01:30;;;;;;;;;11.75;8.75;;;;;9.41;78.37;99725.06;5075420;28;45322;-73
2022/01/04 05:03:55;;;;;;;;;4.75;4.75;;;;;9.50;78.49;99726.38;5077428;28;45589;-73
2022/01/04 05:06:20;;;;;;;;;6.00;4.25;;;;;9.45;77.91;99715.19;5076118;27;45635;-73
2022/01/04 05:08:46;;;;;;;;;16.50;7.75;;;;;9.38;78.43;99698.75;5074274;28;45531;-73
2022/01/04 05:11:11;;;;;;;;;3.75;3.75;;;;;9.54;77.95;99723.53;5076090;28;45504;-73
2022/01/04 05:13:36;;;;;;;;;7.00;4.25;;;;;9.42;78.01;99708.28;5076741;28;45509;-73
2022/01/04 05:16:02;;;;;;;;;21.75;10.00;;;;;9.41;77.77;99722.41;5057140;28;46022;-73
2022/01/04 05:18:27;;;;;;;;;19.75;9.25;;;;;9.38;77.56;99719.03;5057430;28;45380;-73
2022/01/04 05:20:52;;;;;;;;;7.50;5.50;;;;;9.38;77.90;99719.88;5076202;28;45577;-73
2022/01/04 05:23:18;;;;;;;;;5.50;5.00;;;;;9.37;77.76;99725.25;5075248;27;45491;-73
2022/01/04 05:25:43;;;;;;;;;7.25;5.75;;;;;9.48;78.16;99742.31;5076216;28;45305;-73
2022/01/04 05:28:08;;;;;;;;;3.75;2.00;;;;;9.42;78.30;99726.75;5076835;27;45628;-73
2022/01/04 05:30:35;;;;;;;;;8.00;5.00;;;;;9.48;77.97;99730.91;5075101;27;45744;-73
2022/01/04 05:33:00;;;;;;;;;4.50;1.75;;;;;9.27;78.10;99698.41;5076327;28;45411;-73
2022/01/04 05:35:27;;;;;;;;;9.75;7.50;;;;;9.47;78.60;99730.06;5075275;27;46087;-72
2022/01/04 05:37:52;;;;;;;;;4.25;2.00;;;;;9.25;77.36;99693.19;5075693;27;45553;-73
2022/01/04 05:40:18;;;;;;;;;2.75;2.75;;;;;9.41;78.39;99706.56;5078102;28;45782;-73
2022/01/04 05:42:43;;;;;;;;;4.50;3.75;;;;;9.36;77.84;99695.34;5073535;27;45672;-73
2022/01/04 05:45:09;;;;;;;;;3.00;3.00;;;;;9.44;78.26;99717.00;5075388;27;45536;-73
2022/01/04 05:47:34;;;;;;;;;5.25;4.00;;;;;9.37;77.90;99717.31;5075385;28;45485;-73
2022/01/04 05:49:59;;;;;;;;;3.75;2.50;;;;;9.42;77.92;99712.69;5075416;27;45360;-74
2022/01/04 05:52:24;;;;;;;;;3.75;2.00;;;;;9.34;78.29;99710.41;5076967;28;45383;-74
2022/01/04 05:54:51;;;;;;;;;4.00;2.75;;;;;9.38;77.96;99727.81;5075689;28;45331;-74
2022/01/04 05:57:17;;;;;;;;;8.00;4.50;;;;;9.45;78.40;99737.19;5074713;28;45446;-74
2022/01/04 05:59:42;;;;;;;;;3.75;2.00;;;;;9.24;77.93;99698.56;5075132;28;45379;-74
2022/01/04 06:02:07;;;;;;;;;4.75;3.00;;;;;9.38;78.29;99719.88;5074839;28;45690;-74
2022/01/04 06:04:33;;;;;;;;;2.75;2.75;;;;;9.48;78.12;99718.56;5074960;27;45699;-73
2022/01/04 06:06:59;;;;;;;;;5.75;2.00;;;;;9.44;77.96;99717.00;5076652;27;45350;-73
2022/01/04 06:09:28;;;;;;;;;5.00;4.00;;;;;9.47;77.92;99718.59;5075525;27;45343;-73
2022/01/04 06:17:09;;;;;;;;;4.75;2.50;;;;;9.28;78.02;99697.47;5072879;28;45468;-73
2022/01/04 06:19:36;;;;;;;;;6.25;4.75;;;;;9.40;78.72;99712.75;5073638;27;45553;-74
2022/01/04 06:22:01;;;;;;;;;2.00;2.00;;;;;9.28;77.98;99684.28;5076688;28;45431;-73
2022/01/04 06:24:26;;;;;;;;;3.50;3.50;;;;;9.10;78.40;99655.16;5059688;27;46273;-73
2022/01/04 06:26:52;;;;;;;;;3.00;3.00;;;;;9.23;78.64;99694.19;5074679;27;45838;-73
2022/01/04 06:29:20;;;;;;;;;4.75;4.75;;;;;8.91;78.79;99646.34;5074492;28;45402;-74
2022/01/04 06:31:45;;;;;;;;;6.75;5.50;;;;;9.17;78.71;99692.66;5075006;27;45590;-74
2022/01/04 06:34:10;;;;;;;;;2.00;2.00;;;;;8.98;78.64;99665.41;5076488;28;46437;-73
2022/01/04 06:36:36;;;;;;;;;4.25;3.75;;;;;8.64;78.71;99607.06;5074565;27;45816;-74
2022/01/04 06:39:01;;;;;;;;;2.50;2.50;;;;;9.07;79.00;99684.31;5073005;27;45781;-73
2022/01/04 06:41:27;;;;;;;;;16.75;9.75;;;;;9.29;79.10;99692.16;5074284;28;45482;-73
2022/01/04 06:43:52;;;;;;;;;5.25;4.00;;;;;9.25;78.77;99694.97;5074193;28;45469;-73
2022/01/04 06:46:17;;;;;;;;;10.75;8.50;;;;;8.89;78.61;99635.00;5076246;28;45434;-73
2022/01/04 06:48:43;;;;;;;;;4.00;4.00;;;;;9.09;78.46;99656.09;5074810;27;45329;-73
2022/01/04 06:51:09;;;;;;;;;5.25;5.25;;;;;9.23;78.69;99691.53;5056645;28;45561;-73
2022/01/04 06:53:35;;;;;;;;;3.75;3.75;;;;;9.14;78.86;99679.63;5066098;27;46384;-73
2022/01/04 06:56:01;;;;;;;;;6.25;4.00;;;;;9.14;79.24;99686.69;5074042;28;45444;-73
2022/01/04 06:58:26;;;;;;;;;4.75;4.75;;;;;9.17;79.16;99686.53;5071807;28;45439;-73
2022/01/04 07:00:52;;;;;;;;;2.00;2.00;;;;;9.26;79.11;99702.81;5073729;27;45410;-72
2022/01/04 07:03:17;;;;;;;;;3.25;1.50;;;;;9.24;78.48;99694.13;5073308;28;45606;-73
2022/01/04 07:05:43;;;;;;;;;4.00;3.00;;;;;9.17;78.64;99681.25;5074444;28;45338;-73
2022/01/04 07:08:08;;;;;;;;;3.75;3.75;;;;;9.28;78.59;99692.19;5055498;28;45427;-74
2022/01/04 07:10:34;;;;;;;;;7.00;3.75;;;;;9.27;78.56;99698.41;5074379;28;45409;-73
2022/01/04 07:12:59;;;;;;;;;5.25;4.50;;;;;9.16;78.69;99684.84;5074322;28;45438;-74
2022/01/04 07:15:24;;;;;;;;;5.25;4.25;;;;;9.09;78.30;99674.56;5074091;28;45387;-74
2022/01/04 07:17:50;;;;;;;;;12.75;10.00;;;;;9.17;78.60;99689.19;5073988;28;45455;-73
2022/01/04 07:20:15;;;;;;;;;15.75;13.00;;;;;9.08;78.63;99667.56;5074352;28;45420;-74
2022/01/04 07:22:41;;;;;;;;;4.50;3.50;;;;;9.19;78.56;99675.00;5073952;28;46310;-74
2022/01/04 07:25:07;;;;;;;;;9.75;5.00;;;;;9.11;79.07;99671.84;5075744;28;45384;-74
2022/01/04 07:27:32;;;;;;;;;5.75;4.25;;;;;9.03;78.68;99651.09;5073680;28;45474;-74
2022/01/04 07:29:58;;;;;;;;;8.00;5.50;;;;;9.15;78.71;99665.50;5074014;28;45432;-74
2022/01/04 07:32:24;;;;;;;;;5.50;5.50;;;;;9.03;78.83;99640.53;5073702;27;45405;-74
2022/01/04 07:34:49;;;;;;;;;11.25;9.50;;;;;9.20;79.04;99683.75;5073986;28;45699;-74
2022/01/04 07:37:14;;;;;;;;;5.75;5.00;;;;;8.97;78.86;99642.56;5076278;28;45513;-74
2022/01/04 07:39:41;;;;;;;;;10.00;8.00;;;;;9.14;78.82;99666.41;5073455;27;45442;-74
2022/01/04 07:42:06;;;;;;;;;11.25;9.00;;;;;9.19;78.84;99674.13;5073547;28;46124;-74
2022/01/04 07:44:32;;;;;;;;;7.75;5.75;;;;;9.13;78.66;99662.06;5055338;28;45586;-74
2022/01/04 07:46:58;;;;;;;;;4.50;4.00;;;;;9.14;78.86;99678.75;5074139;28;45325;-74
2022/01/04 07:49:23;;;;;;;;;8.50;7.00;;;;;8.98;78.68;99655.72;5074945;28;45328;-74
2022/01/04 07:51:49;;;;;;;;;5.50;5.50;;;;;8.94;79.01;99651.50;5074138;28;45363;-74
2022/01/04 07:54:14;;;;;;;;;4.75;3.25;;;;;8.98;78.96;99650.44;5071734;28;45370;-74
2022/01/04 07:56:40;;;;;;;;;6.25;5.00;;;;;9.02;78.54;99677.53;5071907;28;45272;-74
2022/01/04 07:59:05;;;;;;;;;3.50;3.25;;;;;9.09;78.99;99706.22;5073417;27;45399;-73
2022/01/04 08:01:31;;;;;;;;;5.25;4.25;;;;;8.83;79.21;99672.22;5074163;27;46533;-73
2022/01/04 08:03:58;;;;;;;;;4.25;4.25;;;;;9.09;79.02;99705.38;5074831;28;45420;-73
2022/01/04 08:06:23;;;;;;;;;4.75;3.00;;;;;8.82;79.16;99657.31;5073367;28;45498;-73
2022/01/04 08:08:49;;;;;;;;;3.50;3.50;;;;;9.06;78.93;99695.81;5072939;28;45373;-73
2022/01/04 08:11:15;;;;;;;;;4.25;3.75;;;;;9.00;78.84;99684.66;5073580;27;45452;-73
2022/01/04 08:13:40;;;;;;;;;5.50;5.50;;;;;9.04;78.82;99697.66;5073230;27;45352;-73
2022/01/04 08:16:05;;;;;;;;;3.50;2.75;;;;;9.03;78.91;99705.63;5075297;28;45352;-73
2022/01/04 08:18:31;;;;;;;;;8.00;4.00;;;;;8.86;79.03;99672.94;5073566;27;45479;-73
2022/01/04 08:20:58;;;;;;;;;3.00;2.00;;;;;8.85;78.56;99684.44;5065923;28;46302;-73
2022/01/04 08:23:25;;;;;;;;;3.25;2.00;;;;;8.81;79.17;99680.19;5071093;28;45518;-73
2022/01/04 08:25:51;;;;;;;;;4.00;3.25;;;;;8.99;78.95;99712.81;5072877;28;45312;-73
2022/01/04 08:28:16;;;;;;;;;2.00;2.00;;;;;8.84;79.04;99692.41;5075234;28;45512;-73
2022/01/04 08:30:43;;;;;;;;;3.75;2.75;;;;;8.89;79.26;99702.75;5055872;28;47915;-73
2022/01/04 08:33:09;;;;;;;;;4.00;2.00;;;;;8.83;78.88;99701.25;5072744;28;45403;-73
2022/01/04 08:35:35;;;;;;;;;2.00;2.00;;;;;8.91;79.08;99712.31;5071036;28;45658;-73
2022/01/04 08:38:00;;;;;;;;;3.00;3.00;;;;;9.00;78.80;99734.78;5052596;28;45484;-74
2022/01/04 08:40:26;;;;;;;;;2.75;1.00;;;;;9.01;78.85;99744.44;5073895;28;45390;-73
2022/01/04 08:42:51;;;;;;;;;5.25;3.25;;;;;9.02;78.94;99754.91;5074134;28;45352;-73
2022/01/04 08:45:17;;;;;;;;;3.50;2.00;;;;;8.90;78.63;99731.72;5072919;27;45404;-73
2022/01/04 08:47:43;;;;;;;;;4.00;4.00;;;;;9.09;78.61;99764.31;5071446;27;45408;-73
2022/01/04 08:50:11;;;;;;;;;2.00;2.00;;;;;9.09;78.64;99753.75;5072779;28;46054;-73
2022/01/04 08:52:37;;;;;;;;;3.25;3.25;;;;;9.09;78.67;99758.16;5072845;28;45364;-74
2022/01/04 08:55:03;;;;;;;;;5.00;4.00;;;;;9.03;78.20;99754.00;5074733;28;45356;-73
2022/01/04 08:57:29;;;;;;;;;3.75;3.00;;;;;9.03;78.42;99738.19;5086575;27;44989;-73
2022/01/04 08:59:55;;;;;;;;;3.75;3.75;;;;;8.92;78.44;99714.03;5084073;28;45438;-73
2022/01/04 09:02:23;;;;;;;;;4.00;3.50;;;;;9.18;78.37;99754.28;5085311;27;44847;-74
2022/01/04 09:04:49;;;;;;;;;5.00;5.00;;;;;9.16;78.24;99754.31;5058393;28;45223;-73
2022/01/04 09:07:15;;;;;;;;;4.25;3.00;;;;;9.10;78.63;99741.41;5074455;27;45391;-73
2022/01/04 09:09:40;;;;;;;;;5.25;5.25;;;;;9.14;78.25;99744.75;5073254;28;46015;-73
2022/01/04 09:12:06;;;;;;;;;8.25;2.75;;;;;9.10;78.13;99739.59;5072871;28;45502;-73
2022/01/04 09:14:54;;;;;;;;;3.75;3.00;;;;;9.30;77.59;99759.00;5071006;27;45332;-73
2022/01/04 09:20:07;;;;;;;;;3.25;2.25;;;;;9.37;78.17;99760.44;5057183;28;45358;-73
2022/01/04 09:22:32;;;;;;;;;3.00;3.00;;;;;8.93;78.16;99677.94;5053445;28;45545;-73
2022/01/04 09:24:58;;;;;;;;;8.25;4.50;;;;;9.39;78.15;99748.03;5071969;28;45430;-73
2022/01/04 09:27:23;;;;;;;;;8.00;4.25;;;;;9.40;77.78;99741.81;5072366;27;45490;-74
2022/01/04 09:29:49;;;;;;;;;4.50;4.25;;;;;9.26;77.30;99721.28;5071996;28;45483;-74
2022/01/04 09:32:17;;;;;;;;;3.00;3.00;;;;;9.27;77.65;99723.03;5066829;27;45404;-73
2022/01/04 09:34:44;;;;;;;;;4.75;4.00;;;;;9.32;78.08;99733.38;5071995;28;45525;-74
2022/01/04 09:37:10;;;;;;;;;12.25;10.00;;;;;9.32;78.01;99725.44;5074045;28;45347;-73
2022/01/04 09:39:35;;;;;;;;;4.00;4.00;;;;;9.22;78.08;99714.44;5071991;27;46347;-73
2022/01/04 09:42:01;;;;;;;;;4.00;4.00;;;;;9.24;77.73;99695.91;5071823;28;45423;-73
2022/01/04 09:44:27;;;;;;;;;5.00;5.00;;;;;9.20;77.61;99704.88;5072107;28;45473;-73
2022/01/04 09:46:54;;;;;;;;;3.25;2.75;;;;;9.36;78.30;99728.81;5072499;28;45289;-73
2022/01/04 09:49:20;;;;;;;;;13.00;10.25;;;;;9.41;77.88;99735.63;5076922;28;46070;-73
2022/01/04 09:51:47;;;;;;;;;3.75;3.75;;;;;9.30;77.96;99712.31;5074545;27;45433;-73
2022/01/04 09:54:15;;;;;;;;;1.75;1.00;;;;;9.39;77.65;99729.53;5074067;28;45392;-74
2022/01/04 09:56:41;;;;;;;;;8.00;4.00;;;;;9.34;77.54;99710.41;5075534;27;45435;-73
2022/01/04 09:59:06;;;;;;;;;3.00;2.00;;;;;9.34;77.68;99713.03;5075143;27;45534;-74
2022/01/04 10:01:37;;;;;;;;;3.50;3.50;;;;;9.47;77.33;99745.91;5075896;27;45525;-73
2022/01/04 10:04:04;;;;;;;;;2.00;2.00;;;;;9.45;78.06;99742.47;5053839;28;45361;-74
2022/01/04 10:06:30;;;;;;;;;5.00;5.00;;;;;9.38;78.02;99740.16;5055995;28;45531;-74
2022/01/04 10:09:09;;;;;;;;;6.00;6.00;;;;;9.44;77.58;99756.59;5075456;27;45277;-74
2022/01/04 10:11:42;;;;;;;;;5.00;5.00;;;;;9.44;77.92;99756.59;5075104;27;45403;-73
2022/01/04 10:14:31;;;;;;;;;3.75;3.50;;;;;9.44;78.07;99756.59;5074848;27;45353;-73
2022/01/04 10:17:02;;;;;;;;;3.25;3.00;;;;;9.40;78.20;99741.81;5060100;28;45534;-73
2022/01/04 10:19:39;;;;;;;;;2.75;1.00;;;;;9.51;78.47;99744.81;5075701;28;46028;-73
2022/01/04 10:22:24;;;;;;;;;3.50;3.00;;;;;9.56;78.17;99747.25;5075783;27;45328;-73
2022/01/04 10:25:02;;;;;;;;;6.25;4.75;;;;;9.57;77.64;99754.25;5074393;28;45388;-73
2022/01/04 10:27:27;;;;;;;;;10.50;4.50;;;;;9.59;77.52;99751.53;5074972;27;45416;-73
2022/01/04 10:30:11;;;;;;;;;4.25;3.25;;;;;9.63;77.91;99742.56;5068378;28;48265;-73
2022/01/04 10:33:06;;;;;;;;;5.00;4.50;;;;;9.65;77.77;99743.34;5074392;27;45643;-73
2022/01/04 10:35:48;;;;;;;;;5.50;4.25;;;;;9.53;77.24;99724.50;5049128;28;45393;-74
2022/01/04 10:38:18;;;;;;;;;4.50;3.00;;;;;9.59;77.51;99735.69;5068810;28;45405;-73
2022/01/04 10:40:46;;;;;;;;;6.00;5.75;;;;;9.46;77.76;99723.03;5072146;27;47149;-73
2022/01/04 10:43:14;;;;;;;;;8.50;5.00;;;;;9.53;77.34;99742.97;5075617;28;45510;-73
2022/01/04 10:45:42;;;;;;;;;4.25;4.25;;;;;9.55;77.77;99735.81;5061046;28;45526;-73
2022/01/04 10:48:29;;;;;;;;;9.00;6.00;;;;;9.58;77.92;99739.25;5074340;28;45437;-73
2022/01/04 10:50:58;;;;;;;;;9.25;6.50;;;;;9.49;77.98;99717.63;5073946;28;45367;-73
2022/01/04 10:53:29;;;;;;;;;5.00;4.00;;;;;9.58;78.13;99736.63;5074045;28;45372;-73
2022/01/04 10:56:01;;;;;;;;;9.00;6.25;;;;;9.19;77.56;99679.41;5074208;28;45703;-73
2022/01/04 10:58:30;;;;;;;;;6.00;6.00;;;;;9.58;77.95;99745.38;5074667;28;45482;-73
2022/01/04 11:00:59;;;;;;;;;8.25;6.00;;;;;9.62;77.73;99761.94;5075094;28;45395;-73
2022/01/04 11:03:28;;;;;;;;;10.25;6.00;;;;;9.59;77.98;99770.00;5074231;28;45439;-73
2022/01/04 11:06:00;;;;;;;;;8.25;7.50;;;;;9.44;78.16;99743.41;5073856;28;45494;-73
2022/01/04 11:08:26;;;;;;;;;9.75;7.50;;;;;9.54;78.27;99749.97;5065822;28;45375;-73
2022/01/04 11:10:53;;;;;;;;;7.25;6.00;;;;;9.53;78.21;99750.91;5072858;28;45996;-73
2022/01/04 11:13:19;;;;;;;;;5.75;5.00;;;;;9.65;78.35;99764.47;5076306;28;45351;-73
2022/01/04 11:15:45;;;;;;;;;11.00;8.75;;;;;9.64;78.67;99750.38;5056049;28;45350;-74
2022/01/04 11:18:11;;;;;;;;;9.75;6.00;;;;;9.66;78.58;99745.03;5057246;28;45391;-73
2022/01/04 11:20:39;;;;;;;;;9.75;9.75;;;;;9.63;77.53;99738.13;5073839;28;46128;-73
2022/01/04 11:23:05;;;;;;;;;10.00;10.00;;;;;9.58;78.38;99736.63;5068163;27;45892;-73
2022/01/04 11:25:30;;;;;;;;;13.00;11.50;;;;;9.80;78.63;99765.56;5074276;27;45585;-73
2022/01/04 11:27:57;;;;;;;;;9.75;5.75;;;;;9.77;78.01;99767.41;5075490;28;45671;-73
2022/01/04 11:30:31;;;;;;;;;12.50;10.00;;;;;9.75;78.44;99763.97;5073480;28;45521;-73
2022/01/04 11:33:02;;;;;;;;;6.00;5.25;;;;;9.55;78.66;99735.81;5073595;28;45365;-73
2022/01/04 11:35:29;;;;;;;;;14.25;11.75;;;;;9.77;78.41;99761.25;5066428;28;45538;-73
2022/01/04 11:38:00;;;;;;;;;15.25;9.50;;;;;9.75;78.47;99753.41;5052949;28;45642;-73
2022/01/04 11:40:39;;;;;;;;;12.25;9.75;;;;;9.84;78.47;99757.41;5075036;28;45572;-73
2022/01/04 11:43:23;;;;;;;;;12.00;11.00;;;;;9.88;78.66;99764.28;5052427;28;46376;-72
2022/01/04 11:45:49;;;;;;;;;11.75;10.25;;;;;9.81;78.60;99744.31;5074594;27;45459;-73
2022/01/04 11:48:27;;;;;;;;;11.00;10.75;;;;;9.97;79.18;99752.38;5073368;28;45504;-73